BLACK BUTTE (BLB)

Elevation: 426' · STONY CR basin · Operator: US Army Corps of Engineers

Provisional data, subject to change.
Query executed Sunday at 1:36:56   clock

Select a sensor type for a plot of data.
Note: Reservoir Flows are daily averages.

Earlier

Date RES ELE    STORAGE    RES CHG    TOC STO    ABV TOC    OUTFLOW    INFLOW    PPT INC    TEMP MN    TEMP MX    EVP PAN   
 FEET   AF   AF   AF   AF   CFS   CFS   INCHES   DEG F   DEG F   INCHES  
11/22/2014 438.43 28912 -- 74217 -- 4 16 0.16 8 17 0.05
11/23/2014 438.43 28912 -- 62170 -43833 4 8 0.00 6 16 0.06
11/24/2014 438.42 28895 -17 60595 -31700 4 -0 0.01 7 20 0.07
11/25/2014 438.42 28895 0 59043 -30148 3 7 0.00 5 19 0.06
11/26/2014 438.42 28895 0 69800 -40905 5 8 0.00 6 19 0.05
11/27/2014 438.42 28895 0 58945 -30050 6 9 0.01 8 18 0.05
11/28/2014 438.44 28929 34 58945 -40871 7 25 0.33 5 11 0.02
11/29/2014 438.49 29015 86 58897 -40785 8 52 0.30 11 13 0.01
11/30/2014 438.55 29118 103 58802 -29684 7 61 0.69 11 13 0.02
12/01/2014 438.57 29153 35 58430 -29277 4 24 0.01 11 14 0.03
12/02/2014 438.60 29205 52 69800 -40595 5 32 0.47 12 14 0.02
12/03/2014 439.40 30617 1412 53711 -23094 8 721 3.65 11 14 0.02
12/04/2014 439.91 31541 924 69800 -38259 4 473 0.31 12 17 0.04
12/05/2014 440.15 31982 441 52195 -37818 3 227 0.58 13 16 0.02
12/06/2014 440.54 32707 725 51135 -37093 3 372 0.03 12 18 0.05
12/07/2014 440.76 33121 414 50765 -17644 2 214 0.00 11 17 0.04
12/08/2014 440.89 33367 246 50583 -17216 1 127 0.08 12 14 0.02
12/09/2014 440.98 33537 170 50462 -16925 1 88 0.00 13 15 0.02
12/10/2014 441.15 33862 325 49572 -15710 0 165 0.97 11 14 0.02
12/11/2014 449.05 51254 17392 35396 1682 2249 11020 3.83 9 14 0.02
12/12/2014 449.82 53203 1949 33694 3633 4218 5203 0.05 8 10 0.02
12/13/2014 450.76 55649 2446 33537 6079 376 1613 0.00 7 14 0.04
12/14/2014 451.26 56981 1332 33662 23319 396 1070 0.00 6 10 0.02
12/15/2014 451.86 58610 1629 32020 26590 1143 1966 1.19 8 9 0.01
12/16/2014 451.46 57521 -1089 31858 25663 3054 2508 0.99 8 11 0.02
12/17/2014 450.41 54730 -2791 31912 22818 3865 2461 0.09 9 13 0.04
12/18/2014 448.86 50781 -3949 32193 18588 3608 1620 0.17 9 12 0.03
12/19/2014 448.26 49304 -1477 31258 17111 3511 -- -- 10 11 0.02
12/20/2014 -- -- -- -- -- -- -- -- -- -- --
12/21/2014 -- -- -- -- -- -- -- -- -- -- --

Later | Latest

Warning! This data is preliminary and subject to revision.

Show BLB Map | Plot BLB Data | 1 Month BLB Data | Real-Time BLB Data | BLB Info